sensor_id;sensor_type;location;lat;lon;timestamp;pressure;altitude;pressure_sealevel;temperature
49593;BMP280;35499;51.482;4.264;2023-03-24T00:00:45;99745.34;;;12.73
49593;BMP280;35499;51.482;4.264;2023-03-24T00:03:11;99739.13;;;12.78
49593;BMP280;35499;51.482;4.264;2023-03-24T00:05:36;99742.31;;;12.85
49593;BMP280;35499;51.482;4.264;2023-03-24T00:08:02;99739.53;;;12.89
49593;BMP280;35499;51.482;4.264;2023-03-24T00:10:29;99729.09;;;12.92
49593;BMP280;35499;51.482;4.264;2023-03-24T00:12:59;99722.91;;;12.96
49593;BMP280;35499;51.482;4.264;2023-03-24T00:15:24;99739.16;;;12.98
49593;BMP280;35499;51.482;4.264;2023-03-24T00:17:50;99725.38;;;12.99
49593;BMP280;35499;51.482;4.264;2023-03-24T00:20:18;99714.09;;;13.01
49593;BMP280;35499;51.482;4.264;2023-03-24T00:22:46;99717.41;;;13.05
49593;BMP280;35499;51.482;4.264;2023-03-24T00:25:17;99726.03;;;13.04
49593;BMP280;35499;51.482;4.264;2023-03-24T00:27:43;99710.41;;;13.06
49593;BMP280;35499;51.482;4.264;2023-03-24T00:30:10;99705.16;;;13.09
49593;BMP280;35499;51.482;4.264;2023-03-24T00:32:37;99705.28;;;13.06
49593;BMP280;35499;51.482;4.264;2023-03-24T00:35:09;99699.28;;;13.06
49593;BMP280;35499;51.482;4.264;2023-03-24T00:37:35;99703.69;;;13.04
49593;BMP280;35499;51.482;4.264;2023-03-24T00:40:03;99702.84;;;13.04
49593;BMP280;35499;51.482;4.264;2023-03-24T00:42:32;99707.78;;;13.08
49593;BMP280;35499;51.482;4.264;2023-03-24T00:44:59;99694.84;;;13.09
49593;BMP280;35499;51.482;4.264;2023-03-24T00:47:25;99706.91;;;13.09
49593;BMP280;35499;51.482;4.264;2023-03-24T00:49:51;99692.00;;;13.15
49593;BMP280;35499;51.482;4.264;2023-03-24T00:52:20;99685.25;;;13.13
49593;BMP280;35499;51.482;4.264;2023-03-24T00:54:47;99694.56;;;13.15
49593;BMP280;35499;51.482;4.264;2023-03-24T00:57:14;99708.25;;;13.17
49593;BMP280;35499;51.482;4.264;2023-03-24T00:59:49;99707.22;;;13.21
49593;BMP280;35499;51.482;4.264;2023-03-24T01:02:21;99678.75;;;13.24
49593;BMP280;35499;51.482;4.264;2023-03-24T01:04:53;99670.88;;;13.27
49593;BMP280;35499;51.482;4.264;2023-03-24T01:07:23;99678.50;;;13.30
49593;BMP280;35499;51.482;4.264;2023-03-24T01:09:49;99671.66;;;13.29
49593;BMP280;35499;51.482;4.264;2023-03-24T01:12:34;99694.84;;;13.29
49593;BMP280;35499;51.482;4.264;2023-03-24T01:15:04;99675.63;;;13.36
49593;BMP280;35499;51.482;4.264;2023-03-24T01:17:30;99685.94;;;13.36
49593;BMP280;35499;51.482;4.264;2023-03-24T01:19:56;99712.69;;;13.33
49593;BMP280;35499;51.482;4.264;2023-03-24T01:22:27;99699.91;;;13.30
49593;BMP280;35499;51.482;4.264;2023-03-24T01:24:52;99702.59;;;13.29
49593;BMP280;35499;51.482;4.264;2023-03-24T01:27:18;99702.63;;;13.27
49593;BMP280;35499;51.482;4.264;2023-03-24T01:29:43;99711.31;;;13.25
49593;BMP280;35499;51.482;4.264;2023-03-24T01:32:10;99711.47;;;13.22
49593;BMP280;35499;51.482;4.264;2023-03-24T01:34:36;99718.56;;;13.17
49593;BMP280;35499;51.482;4.264;2023-03-24T01:37:02;99715.56;;;13.06
49593;BMP280;35499;51.482;4.264;2023-03-24T01:39:27;99708.22;;;12.98
49593;BMP280;35499;51.482;4.264;2023-03-24T01:41:54;99795.97;;;12.95
49593;BMP280;35499;51.482;4.264;2023-03-24T01:44:35;99796.16;;;12.70
49593;BMP280;35499;51.482;4.264;2023-03-24T01:47:02;99796.88;;;12.28
49593;BMP280;35499;51.482;4.264;2023-03-24T01:49:30;99800.19;;;12.09
49593;BMP280;35499;51.482;4.264;2023-03-24T01:51:59;99819.44;;;11.99
49593;BMP280;35499;51.482;4.264;2023-03-24T01:54:35;99820.88;;;11.84
49593;BMP280;35499;51.482;4.264;2023-03-24T01:57:10;99812.72;;;11.72
49593;BMP280;35499;51.482;4.264;2023-03-24T01:59:40;99822.59;;;11.60
49593;BMP280;35499;51.482;4.264;2023-03-24T02:02:06;99833.16;;;11.51
49593;BMP280;35499;51.482;4.264;2023-03-24T02:04:40;99844.56;;;11.44
49593;BMP280;35499;51.482;4.264;2023-03-24T02:07:39;99848.22;;;11.37
49593;BMP280;35499;51.482;4.264;2023-03-24T02:10:10;99862.09;;;11.32
49593;BMP280;35499;51.482;4.264;2023-03-24T02:12:37;99845.19;;;11.25
49593;BMP280;35499;51.482;4.264;2023-03-24T02:15:04;99842.84;;;11.18
49593;BMP280;35499;51.482;4.264;2023-03-24T02:17:41;99844.75;;;11.11
49593;BMP280;35499;51.482;4.264;2023-03-24T02:20:29;99864.59;;;11.07
49593;BMP280;35499;51.482;4.264;2023-03-24T02:25:50;99869.13;;;11.00
49593;BMP280;35499;51.482;4.264;2023-03-24T02:31:06;99883.00;;;10.95
49593;BMP280;35499;51.482;4.264;2023-03-24T02:36:46;99891.78;;;10.87
49593;BMP280;35499;51.482;4.264;2023-03-24T02:42:07;99893.75;;;10.79
49593;BMP280;35499;51.482;4.264;2023-03-24T02:50:01;99916.22;;;10.71
49593;BMP280;35499;51.482;4.264;2023-03-24T02:52:39;99904.19;;;10.73
49593;BMP280;35499;51.482;4.264;2023-03-24T02:58:35;99915.34;;;10.72
49593;BMP280;35499;51.482;4.264;2023-03-24T03:01:15;99918.72;;;10.74
49593;BMP280;35499;51.482;4.264;2023-03-24T03:03:53;99918.63;;;10.77
49593;BMP280;35499;51.482;4.264;2023-03-24T03:06:27;99933.13;;;10.79
49593;BMP280;35499;51.482;4.264;2023-03-24T03:08:54;99916.88;;;10.79
49593;BMP280;35499;51.482;4.264;2023-03-24T03:11:22;99919.47;;;10.77
49593;BMP280;35499;51.482;4.264;2023-03-24T03:13:52;99926.44;;;10.74
49593;BMP280;35499;51.482;4.264;2023-03-24T03:16:26;99935.03;;;10.72
49593;BMP280;35499;51.482;4.264;2023-03-24T03:19:00;99935.16;;;10.69
49593;BMP280;35499;51.482;4.264;2023-03-24T03:21:40;99945.56;;;10.64
49593;BMP280;35499;51.482;4.264;2023-03-24T03:24:09;99948.16;;;10.63
49593;BMP280;35499;51.482;4.264;2023-03-24T03:26:35;99966.94;;;10.65
49593;BMP280;35499;51.482;4.264;2023-03-24T03:29:08;99969.41;;;10.68
49593;BMP280;35499;51.482;4.264;2023-03-24T03:31:45;99974.47;;;10.71
49593;BMP280;35499;51.482;4.264;2023-03-24T03:34:17;99976.09;;;10.73
49593;BMP280;35499;51.482;4.264;2023-03-24T03:36:55;99974.25;;;10.78
49593;BMP280;35499;51.482;4.264;2023-03-24T03:39:27;99978.41;;;10.82
49593;BMP280;35499;51.482;4.264;2023-03-24T03:41:53;99962.91;;;10.85
49593;BMP280;35499;51.482;4.264;2023-03-24T03:44:19;99959.50;;;10.84
49593;BMP280;35499;51.482;4.264;2023-03-24T03:46:45;99974.16;;;10.81
49593;BMP280;35499;51.482;4.264;2023-03-24T03:49:10;99970.84;;;10.76
49593;BMP280;35499;51.482;4.264;2023-03-24T03:51:35;99964.13;;;10.72
49593;BMP280;35499;51.482;4.264;2023-03-24T03:54:04;99965.16;;;10.67
49593;BMP280;35499;51.482;4.264;2023-03-24T03:56:32;99972.97;;;10.62
49593;BMP280;35499;51.482;4.264;2023-03-24T03:58:58;99979.97;;;10.57
49593;BMP280;35499;51.482;4.264;2023-03-24T04:01:25;99994.63;;;10.54
49593;BMP280;35499;51.482;4.264;2023-03-24T04:04:03;99997.22;;;10.53
49593;BMP280;35499;51.482;4.264;2023-03-24T04:12:08;99993.97;;;10.46
49593;BMP280;35499;51.482;4.264;2023-03-24T04:20:10;100009.44;;;10.45
49593;BMP280;35499;51.482;4.264;2023-03-24T04:26:01;100023.72;;;10.53
49593;BMP280;35499;51.482;4.264;2023-03-24T04:29:01;100023.69;;;10.55
49593;BMP280;35499;51.482;4.264;2023-03-24T04:31:32;100026.25;;;10.55
49593;BMP280;35499;51.482;4.264;2023-03-24T04:34:10;100033.97;;;10.55
49593;BMP280;35499;51.482;4.264;2023-03-24T04:36:52;100033.16;;;10.53
49593;BMP280;35499;51.482;4.264;2023-03-24T04:39:21;100035.00;;;10.48
49593;BMP280;35499;51.482;4.264;2023-03-24T04:41:53;100028.38;;;10.41
49593;BMP280;35499;51.482;4.264;2023-03-24T04:44:20;100031.09;;;10.35
49593;BMP280;35499;51.482;4.264;2023-03-24T04:46:48;100036.28;;;10.32
49593;BMP280;35499;51.482;4.264;2023-03-24T04:49:14;100025.22;;;10.30
49593;BMP280;35499;51.482;4.264;2023-03-24T04:51:41;100034.75;;;10.25
49593;BMP280;35499;51.482;4.264;2023-03-24T04:54:07;100039.09;;;10.22
49593;BMP280;35499;51.482;4.264;2023-03-24T04:56:59;100043.50;;;10.17
49593;BMP280;35499;51.482;4.264;2023-03-24T04:59:26;100036.75;;;10.15
49593;BMP280;35499;51.482;4.264;2023-03-24T05:01:51;100047.88;;;10.14
49593;BMP280;35499;51.482;4.264;2023-03-24T05:04:18;100056.44;;;10.13
49593;BMP280;35499;51.482;4.264;2023-03-24T05:06:44;100055.66;;;10.11
49593;BMP280;35499;51.482;4.264;2023-03-24T05:09:18;100064.19;;;10.11
49593;BMP280;35499;51.482;4.264;2023-03-24T05:11:45;100066.72;;;10.13
49593;BMP280;35499;51.482;4.264;2023-03-24T05:14:11;100066.72;;;10.13
49593;BMP280;35499;51.482;4.264;2023-03-24T05:16:36;100065.84;;;10.14
49593;BMP280;35499;51.482;4.264;2023-03-24T05:19:02;100070.03;;;10.16
49593;BMP280;35499;51.482;4.264;2023-03-24T05:21:28;100069.97;;;10.19
49593;BMP280;35499;51.482;4.264;2023-03-24T05:23:53;100069.94;;;10.20
49593;BMP280;35499;51.482;4.264;2023-03-24T05:26:19;100069.91;;;10.22
49593;BMP280;35499;51.482;4.264;2023-03-24T05:28:44;100075.88;;;10.22
49593;BMP280;35499;51.482;4.264;2023-03-24T05:31:10;100069.00;;;10.24
49593;BMP280;35499;51.482;4.264;2023-03-24T05:33:35;100075.72;;;10.28
49593;BMP280;35499;51.482;4.264;2023-03-24T05:36:00;100074.81;;;10.31
49593;BMP280;35499;51.482;4.264;2023-03-24T05:38:26;100069.63;;;10.32
49593;BMP280;35499;51.482;4.264;2023-03-24T05:40:56;100084.88;;;10.38
49593;BMP280;35499;51.482;4.264;2023-03-24T05:43:21;100077.13;;;10.41
49593;BMP280;35499;51.482;4.264;2023-03-24T05:45:47;100088.16;;;10.44
49593;BMP280;35499;51.482;4.264;2023-03-24T05:48:12;100094.03;;;10.48
49593;BMP280;35499;51.482;4.264;2023-03-24T05:50:37;100088.78;;;10.52
49593;BMP280;35499;51.482;4.264;2023-03-24T05:53:03;100096.34;;;10.56
49593;BMP280;35499;51.482;4.264;2023-03-24T05:55:28;100105.69;;;10.60
49593;BMP280;35499;51.482;4.264;2023-03-24T05:57:54;100109.84;;;10.64
49593;BMP280;35499;51.482;4.264;2023-03-24T06:00:20;100104.63;;;10.67
49593;BMP280;35499;51.482;4.264;2023-03-24T06:02:47;100106.31;;;10.68
49593;BMP280;35499;51.482;4.264;2023-03-24T06:05:13;100111.38;;;10.71
49593;BMP280;35499;51.482;4.264;2023-03-24T06:07:39;100107.03;;;10.73
49593;BMP280;35499;51.482;4.264;2023-03-24T06:10:07;100108.66;;;10.77
49593;BMP280;35499;51.482;4.264;2023-03-24T06:12:34;100118.03;;;10.78
49593;BMP280;35499;51.482;4.264;2023-03-24T06:14:59;100117.97;;;10.81
49593;BMP280;35499;51.482;4.264;2023-03-24T06:17:28;100111.06;;;10.83
49593;BMP280;35499;51.482;4.264;2023-03-24T06:19:54;100117.03;;;10.83
49593;BMP280;35499;51.482;4.264;2023-03-24T06:22:27;100127.34;;;10.82
49593;BMP280;35499;51.482;4.264;2023-03-24T06:24:53;100128.31;;;10.78
49593;BMP280;35499;51.482;4.264;2023-03-24T06:27:21;100134.41;;;10.74
49593;BMP280;35499;51.482;4.264;2023-03-24T06:29:50;100132.59;;;10.77
49593;BMP280;35499;51.482;4.264;2023-03-24T06:32:18;100132.31;;;10.88
49593;BMP280;35499;51.482;4.264;2023-03-24T06:34:43;100141.16;;;11.09
49593;BMP280;35499;51.482;4.264;2023-03-24T06:37:09;100140.63;;;11.26
49593;BMP280;35499;51.482;4.264;2023-03-24T06:39:34;100149.06;;;11.33
49593;BMP280;35499;51.482;4.264;2023-03-24T06:41:59;100153.81;;;11.46
49593;BMP280;35499;51.482;4.264;2023-03-24T06:44:25;100143.28;;;11.55
49593;BMP280;35499;51.482;4.264;2023-03-24T06:46:50;100148.50;;;11.52
49593;BMP280;35499;51.482;4.264;2023-03-24T06:49:16;100151.91;;;11.80
49593;BMP280;35499;51.482;4.264;2023-03-24T06:51:41;100148.00;;;12.23
49593;BMP280;35499;51.482;4.264;2023-03-24T06:54:06;100154.34;;;12.38
49593;BMP280;35499;51.482;4.264;2023-03-24T06:56:32;100158.69;;;12.36
49593;BMP280;35499;51.482;4.264;2023-03-24T06:58:59;100161.22;;;12.11
49593;BMP280;35499;51.482;4.264;2023-03-24T07:01:24;100153.22;;;11.95
49593;BMP280;35499;51.482;4.264;2023-03-24T07:03:50;100162.19;;;11.80
49593;BMP280;35499;51.482;4.264;2023-03-24T07:06:16;100172.69;;;11.75
49593;BMP280;35499;51.482;4.264;2023-03-24T07:08:42;100168.50;;;11.71
49593;BMP280;35499;51.482;4.264;2023-03-24T07:11:09;100173.72;;;11.69
49593;BMP280;35499;51.482;4.264;2023-03-24T07:13:35;100169.16;;;12.05
49593;BMP280;35499;51.482;4.264;2023-03-24T07:16:00;100177.28;;;12.46
49593;BMP280;35499;51.482;4.264;2023-03-24T07:18:25;100173.88;;;12.70
49593;BMP280;35499;51.482;4.264;2023-03-24T07:20:51;100174.44;;;12.80
49593;BMP280;35499;51.482;4.264;2023-03-24T07:23:16;100176.38;;;12.73
49593;BMP280;35499;51.482;4.264;2023-03-24T07:25:42;100181.88;;;12.63
49593;BMP280;35499;51.482;4.264;2023-03-24T07:28:08;100181.69;;;12.42
49593;BMP280;35499;51.482;4.264;2023-03-24T07:30:34;100184.50;;;12.35
49593;BMP280;35499;51.482;4.264;2023-03-24T07:33:01;100197.59;;;12.28
49593;BMP280;35499;51.482;4.264;2023-03-24T07:35:27;100192.47;;;12.28
49593;BMP280;35499;51.482;4.264;2023-03-24T07:37:59;100201.19;;;12.24
49593;BMP280;35499;51.482;4.264;2023-03-24T07:40:25;100211.81;;;12.12
49593;BMP280;35499;51.482;4.264;2023-03-24T07:42:50;100208.72;;;12.01
49593;BMP280;35499;51.482;4.264;2023-03-24T07:45:16;100211.56;;;11.93
49593;BMP280;35499;51.482;4.264;2023-03-24T07:47:44;100205.50;;;11.95
49593;BMP280;35499;51.482;4.264;2023-03-24T07:50:11;100209.56;;;12.02
49593;BMP280;35499;51.482;4.264;2023-03-24T07:52:38;100205.19;;;12.05
49593;BMP280;35499;51.482;4.264;2023-03-24T07:55:09;100206.00;;;12.06
49593;BMP280;35499;51.482;4.264;2023-03-24T07:57:37;100219.88;;;12.02
49593;BMP280;35499;51.482;4.264;2023-03-24T08:00:06;100210.69;;;11.94
49593;BMP280;35499;51.482;4.264;2023-03-24T08:02:48;100217.03;;;11.82
49593;BMP280;35499;51.482;4.264;2023-03-24T08:05:14;100219.06;;;11.72
49593;BMP280;35499;51.482;4.264;2023-03-24T08:07:41;100229.47;;;11.67
49593;BMP280;35499;51.482;4.264;2023-03-24T08:10:11;100230.44;;;11.63
49593;BMP280;35499;51.482;4.264;2023-03-24T08:12:38;100237.94;;;11.71
49593;BMP280;35499;51.482;4.264;2023-03-24T08:15:05;100238.59;;;11.79
49593;BMP280;35499;51.482;4.264;2023-03-24T08:17:30;100247.06;;;11.82
49593;BMP280;35499;51.482;4.264;2023-03-24T08:19:56;100243.34;;;11.92
49593;BMP280;35499;51.482;4.264;2023-03-24T08:22:21;100245.47;;;12.34
49593;BMP280;35499;51.482;4.264;2023-03-24T08:24:46;100246.63;;;12.78
49593;BMP280;35499;51.482;4.264;2023-03-24T08:27:12;100239.06;;;12.99
49593;BMP280;35499;51.482;4.264;2023-03-24T08:29:37;100248.25;;;13.06
49593;BMP280;35499;51.482;4.264;2023-03-24T08:32:03;100245.81;;;13.27
49593;BMP280;35499;51.482;4.264;2023-03-24T08:34:28;100238.19;;;13.70
49593;BMP280;35499;51.482;4.264;2023-03-24T08:36:53;100237.03;;;14.02
49593;BMP280;35499;51.482;4.264;2023-03-24T08:39:19;100247.53;;;14.41
49593;BMP280;35499;51.482;4.264;2023-03-24T08:41:45;100248.88;;;14.51
49593;BMP280;35499;51.482;4.264;2023-03-24T08:44:11;100247.28;;;14.26
49593;BMP280;35499;51.482;4.264;2023-03-24T08:46:36;100264.63;;;13.77
49593;BMP280;35499;51.482;4.264;2023-03-24T08:49:03;100272.75;;;13.19
49593;BMP280;35499;51.482;4.264;2023-03-24T08:51:28;100273.31;;;12.76
49593;BMP280;35499;51.482;4.264;2023-03-24T08:53:54;100279.47;;;12.45
49593;BMP280;35499;51.482;4.264;2023-03-24T08:56:19;100284.00;;;12.36
49593;BMP280;35499;51.482;4.264;2023-03-24T08:58:45;100282.38;;;12.34
49593;BMP280;35499;51.482;4.264;2023-03-24T09:01:18;100272.69;;;12.41
49593;BMP280;35499;51.482;4.264;2023-03-24T09:03:44;100281.13;;;12.46
49593;BMP280;35499;51.482;4.264;2023-03-24T09:06:11;100287.13;;;12.47
49593;BMP280;35499;51.482;4.264;2023-03-24T09:08:37;100277.06;;;12.39
49593;BMP280;35499;51.482;4.264;2023-03-24T09:11:03;100287.53;;;12.34
49593;BMP280;35499;51.482;4.264;2023-03-24T09:13:29;100288.66;;;12.25
49593;BMP280;35499;51.482;4.264;2023-03-24T09:15:58;100285.31;;;12.22
49593;BMP280;35499;51.482;4.264;2023-03-24T09:18:23;100277.59;;;12.22
49593;BMP280;35499;51.482;4.264;2023-03-24T09:20:49;100286.16;;;12.22
49593;BMP280;35499;51.482;4.264;2023-03-24T09:23:15;100288.59;;;12.27
49593;BMP280;35499;51.482;4.264;2023-03-24T09:25:40;100283.38;;;12.30
49593;BMP280;35499;51.482;4.264;2023-03-24T09:28:05;100286.72;;;12.32
49593;BMP280;35499;51.482;4.264;2023-03-24T09:30:32;100285.81;;;12.34
49593;BMP280;35499;51.482;4.264;2023-03-24T09:32:58;100279.72;;;12.36
49593;BMP280;35499;51.482;4.264;2023-03-24T09:35:25;100278.88;;;12.36
49593;BMP280;35499;51.482;4.264;2023-03-24T09:37:51;100279.47;;;12.45
49593;BMP280;35499;51.482;4.264;2023-03-24T09:40:23;100290.97;;;12.61
49593;BMP280;35499;51.482;4.264;2023-03-24T09:42:53;100294.09;;;12.71
49593;BMP280;35499;51.482;4.264;2023-03-24T09:45:20;100286.16;;;12.77
49593;BMP280;35499;51.482;4.264;2023-03-24T09:47:52;100296.72;;;12.70
49593;BMP280;35499;51.482;4.264;2023-03-24T09:50:25;100298.72;;;12.61
49593;BMP280;35499;51.482;4.264;2023-03-24T09:52:53;100306.09;;;12.44
49593;BMP280;35499;51.482;4.264;2023-03-24T09:55:23;100300.06;;;12.45
49593;BMP280;35499;51.482;4.264;2023-03-24T09:57:50;100280.16;;;13.04
49593;BMP280;35499;51.482;4.264;2023-03-24T10:04:39;100268.41;;;15.00
49593;BMP280;35499;51.482;4.264;2023-03-24T10:07:20;100264.00;;;15.22
49593;BMP280;35499;51.482;4.264;2023-03-24T10:09:52;100258.47;;;15.10
49593;BMP280;35499;51.482;4.264;2023-03-24T10:12:29;100277.72;;;14.83
49593;BMP280;35499;51.482;4.264;2023-03-24T10:15:13;100283.34;;;14.29
49593;BMP280;35499;51.482;4.264;2023-03-24T10:20:40;100297.84;;;13.14
49593;BMP280;35499;51.482;4.264;2023-03-24T10:31:40;100292.03;;;13.07
49593;BMP280;35499;51.482;4.264;2023-03-24T10:34:12;100297.75;;;13.41
49593;BMP280;35499;51.482;4.264;2023-03-24T10:36:39;100291.38;;;13.50
49593;BMP280;35499;51.482;4.264;2023-03-24T10:39:05;100296.34;;;13.56
49593;BMP280;35499;51.482;4.264;2023-03-24T10:41:31;100308.47;;;13.54
49593;BMP280;35499;51.482;4.264;2023-03-24T10:43:57;100298.53;;;13.44
49593;BMP280;35499;51.482;4.264;2023-03-24T10:46:26;100307.22;;;13.40
49593;BMP280;35499;51.482;4.264;2023-03-24T10:51:34;100303.78;;;13.16
49593;BMP280;35499;51.482;4.264;2023-03-24T10:54:09;100316.13;;;13.06
49593;BMP280;35499;51.482;4.264;2023-03-24T10:56:38;100305.22;;;12.99
49593;BMP280;35499;51.482;4.264;2023-03-24T10:59:15;100304.53;;;13.19
49593;BMP280;35499;51.482;4.264;2023-03-24T11:01:42;100306.97;;;13.47
49593;BMP280;35499;51.482;4.264;2023-03-24T11:04:13;100309.72;;;13.67
49593;BMP280;35499;51.482;4.264;2023-03-24T11:06:53;100310.69;;;13.64
49593;BMP280;35499;51.482;4.264;2023-03-24T11:09:20;100305.94;;;13.53
49593;BMP280;35499;51.482;4.264;2023-03-24T11:11:46;100315.63;;;13.46
49593;BMP280;35499;51.482;4.264;2023-03-24T11:14:23;100304.78;;;13.61
49593;BMP280;35499;51.482;4.264;2023-03-24T11:16:50;100308.44;;;13.79
49593;BMP280;35499;51.482;4.264;2023-03-24T11:19:23;100296.75;;;13.94
49593;BMP280;35499;51.482;4.264;2023-03-24T11:21:51;100293.09;;;13.99
49593;BMP280;35499;51.482;4.264;2023-03-24T11:24:18;100304.88;;;14.06
49593;BMP280;35499;51.482;4.264;2023-03-24T11:29:17;100305.75;;;14.29
49593;BMP280;35499;51.482;4.264;2023-03-24T11:31:52;100292.84;;;14.49
49593;BMP280;35499;51.482;4.264;2023-03-24T11:34:25;100296.19;;;14.74
49593;BMP280;35499;51.482;4.264;2023-03-24T11:37:12;100287.69;;;15.33
49593;BMP280;35499;51.482;4.264;2023-03-24T11:39:38;100292.03;;;16.29
49593;BMP280;35499;51.482;4.264;2023-03-24T11:47:08;100277.44;;;16.62
49593;BMP280;35499;51.482;4.264;2023-03-24T11:49:42;100284.75;;;16.36
49593;BMP280;35499;51.482;4.264;2023-03-24T11:52:21;100282.41;;;16.12
49593;BMP280;35499;51.482;4.264;2023-03-24T11:54:47;100291.56;;;15.82
49593;BMP280;35499;51.482;4.264;2023-03-24T11:57:14;100295.56;;;15.50
49593;BMP280;35499;51.482;4.264;2023-03-24T12:06:18;100292.06;;;15.31
49593;BMP280;35499;51.482;4.264;2023-03-24T12:17:21;100310.03;;;14.06
49593;BMP280;35499;51.482;4.264;2023-03-24T12:25:28;100327.13;;;11.39
49593;BMP280;35499;51.482;4.264;2023-03-24T12:30:44;100316.91;;;12.27
49593;BMP280;35499;51.482;4.264;2023-03-24T12:33:37;100312.28;;;12.66
49593;BMP280;35499;51.482;4.264;2023-03-24T12:41:24;100319.75;;;12.46
49593;BMP280;35499;51.482;4.264;2023-03-24T12:44:16;100313.56;;;12.25
49593;BMP280;35499;51.482;4.264;2023-03-24T12:47:12;100322.78;;;12.02
49593;BMP280;35499;51.482;4.264;2023-03-24T12:50:10;100327.03;;;11.73
49593;BMP280;35499;51.482;4.264;2023-03-24T12:55:45;100323.69;;;11.39
49593;BMP280;35499;51.482;4.264;2023-03-24T12:58:26;100317.81;;;11.35
49593;BMP280;35499;51.482;4.264;2023-03-24T13:01:05;100323.94;;;11.30
49593;BMP280;35499;51.482;4.264;2023-03-24T13:06:10;100351.69;;;11.15
49593;BMP280;35499;51.482;4.264;2023-03-24T13:08:38;100342.44;;;11.08
49593;BMP280;35499;51.482;4.264;2023-03-24T13:11:08;100334.97;;;10.99
49593;BMP280;35499;51.482;4.264;2023-03-24T13:13:40;100313.81;;;10.89
49593;BMP280;35499;51.482;4.264;2023-03-24T13:16:19;100317.69;;;11.06
49593;BMP280;35499;51.482;4.264;2023-03-24T13:18:50;100299.00;;;11.33
49593;BMP280;35499;51.482;4.264;2023-03-24T13:21:19;100291.19;;;11.97
49593;BMP280;35499;51.482;4.264;2023-03-24T13:24:07;100286.88;;;12.82
49593;BMP280;35499;51.482;4.264;2023-03-24T13:26:46;100274.69;;;13.60
49593;BMP280;35499;51.482;4.264;2023-03-24T13:38:01;100274.91;;;13.30
49593;BMP280;35499;51.482;4.264;2023-03-24T13:40:29;100264.59;;;13.30
49593;BMP280;35499;51.482;4.264;2023-03-24T13:43:06;100265.34;;;13.81
49593;BMP280;35499;51.482;4.264;2023-03-24T13:46:16;100258.59;;;14.45
49593;BMP280;35499;51.482;4.264;2023-03-24T13:48:31;100239.63;;;15.08
49593;BMP280;35499;51.482;4.264;2023-03-24T13:53:34;100244.34;;;15.38
49593;BMP280;35499;51.482;4.264;2023-03-24T13:56:01;100237.09;;;15.46
49593;BMP280;35499;51.482;4.264;2023-03-24T13:58:48;100235.84;;;15.54
49593;BMP280;35499;51.482;4.264;2023-03-24T14:01:20;100236.34;;;15.81
49593;BMP280;35499;51.482;4.264;2023-03-24T14:04:21;100217.91;;;15.89
49593;BMP280;35499;51.482;4.264;2023-03-24T14:06:57;100222.22;;;16.08
49593;BMP280;35499;51.482;4.264;2023-03-24T14:09:28;100227.88;;;16.33
49593;BMP280;35499;51.482;4.264;2023-03-24T14:14:24;100226.13;;;16.16
49593;BMP280;35499;51.482;4.264;2023-03-24T14:17:15;100229.69;;;15.76
49593;BMP280;35499;51.482;4.264;2023-03-24T14:22:34;100231.53;;;15.16
49593;BMP280;35499;51.482;4.264;2023-03-24T14:25:03;100238.03;;;15.04
49593;BMP280;35499;51.482;4.264;2023-03-24T14:27:40;100230.41;;;15.02
49593;BMP280;35499;51.482;4.264;2023-03-24T14:32:45;100236.19;;;15.27
49593;BMP280;35499;51.482;4.264;2023-03-24T14:35:21;100227.59;;;15.46
49593;BMP280;35499;51.482;4.264;2023-03-24T14:37:54;100224.53;;;15.57
49593;BMP280;35499;51.482;4.264;2023-03-24T14:40:37;100233.34;;;15.53
49593;BMP280;35499;51.482;4.264;2023-03-24T14:45:40;100222.25;;;15.49
49593;BMP280;35499;51.482;4.264;2023-03-24T14:48:22;100222.22;;;15.51
49593;BMP280;35499;51.482;4.264;2023-03-24T14:50:47;100215.09;;;15.56
49593;BMP280;35499;51.482;4.264;2023-03-24T14:53:17;100209.41;;;15.48
49593;BMP280;35499;51.482;4.264;2023-03-24T14:55:44;100208.97;;;15.39
49593;BMP280;35499;51.482;4.264;2023-03-24T15:00:46;100219.50;;;15.15
49593;BMP280;35499;51.482;4.264;2023-03-24T15:03:22;100221.44;;;15.10
49593;BMP280;35499;51.482;4.264;2023-03-24T15:05:50;100219.81;;;15.07
49593;BMP280;35499;51.482;4.264;2023-03-24T15:08:22;100214.84;;;15.03
49593;BMP280;35499;51.482;4.264;2023-03-24T15:10:58;100219.88;;;15.06
49593;BMP280;35499;51.482;4.264;2023-03-24T15:15:51;100216.28;;;14.89
49593;BMP280;35499;51.482;4.264;2023-03-24T15:18:18;100210.81;;;14.75
49593;BMP280;35499;51.482;4.264;2023-03-24T15:20:46;100208.66;;;14.65
49593;BMP280;35499;51.482;4.264;2023-03-24T15:23:17;100208.13;;;14.57
49593;BMP280;35499;51.482;4.264;2023-03-24T15:25:42;100202.34;;;14.51
49593;BMP280;35499;51.482;4.264;2023-03-24T15:28:19;100215.41;;;14.48
49593;BMP280;35499;51.482;4.264;2023-03-24T15:30:45;100205.00;;;14.49
49593;BMP280;35499;51.482;4.264;2023-03-24T15:33:11;100204.84;;;14.54
49593;BMP280;35499;51.482;4.264;2023-03-24T15:35:38;100187.31;;;14.60
49593;BMP280;35499;51.482;4.264;2023-03-24T15:38:03;100205.31;;;14.63
49593;BMP280;35499;51.482;4.264;2023-03-24T15:40:30;100208.75;;;14.64
49593;BMP280;35499;51.482;4.264;2023-03-24T15:43:00;100206.34;;;14.59
49593;BMP280;35499;51.482;4.264;2023-03-24T15:45:35;100193.72;;;14.52
49593;BMP280;35499;51.482;4.264;2023-03-24T15:48:05;100194.84;;;14.45
49593;BMP280;35499;51.482;4.264;2023-03-24T15:50:36;100189.63;;;14.47
49593;BMP280;35499;51.482;4.264;2023-03-24T15:53:22;100184.09;;;14.55
49593;BMP280;35499;51.482;4.264;2023-03-24T15:56:01;100173.66;;;14.58
49593;BMP280;35499;51.482;4.264;2023-03-24T15:58:28;100184.22;;;14.52
49593;BMP280;35499;51.482;4.264;2023-03-24T16:00:58;100182.00;;;14.44
49593;BMP280;35499;51.482;4.264;2023-03-24T16:03:24;100180.78;;;14.31
49593;BMP280;35499;51.482;4.264;2023-03-24T16:05:52;100168.28;;;14.21
49593;BMP280;35499;51.482;4.264;2023-03-24T16:08:35;100175.56;;;14.12
49593;BMP280;35499;51.482;4.264;2023-03-24T16:11:04;100167.19;;;14.05
49593;BMP280;35499;51.482;4.264;2023-03-24T16:13:32;100179.25;;;14.05
49593;BMP280;35499;51.482;4.264;2023-03-24T16:15:59;100167.28;;;14.04